createdAt,value
2023-02-11T00:00:13.572Z,15.23
2023-02-11T00:03:16.682Z,17.00
2023-02-11T00:06:19.656Z,16.13
2023-02-11T00:09:22.786Z,14.43
2023-02-11T00:12:27.380Z,14.40
2023-02-11T00:15:30.474Z,14.67
2023-02-11T00:18:33.438Z,15.87
2023-02-11T00:21:36.482Z,15.37
2023-02-11T00:24:39.422Z,15.23
2023-02-11T00:27:43.794Z,14.80
2023-02-11T00:30:46.914Z,15.13
2023-02-11T00:33:50.622Z,15.10
2023-02-11T00:36:55.018Z,15.77
2023-02-11T00:39:57.968Z,15.43
2023-02-11T00:43:02.220Z,14.47
2023-02-11T00:46:05.500Z,14.77
2023-02-11T00:49:08.522Z,14.97
2023-02-11T00:52:11.505Z,15.77
2023-02-11T00:55:14.576Z,16.13
2023-02-11T00:58:18.839Z,16.53
2023-02-11T01:01:22.134Z,15.00
2023-02-11T01:04:25.300Z,16.53
2023-02-11T01:07:28.607Z,17.07
2023-02-11T01:10:31.671Z,16.30
2023-02-11T01:13:37.104Z,16.27
2023-02-11T01:16:41.255Z,17.33
2023-02-11T01:19:44.421Z,17.03
2023-02-11T01:22:47.391Z,17.23
2023-02-11T01:25:51.143Z,16.00
2023-02-11T01:28:55.611Z,15.73
2023-02-11T01:31:58.670Z,15.50
2023-02-11T01:35:01.677Z,17.97
2023-02-11T01:38:04.625Z,16.57
2023-02-11T01:41:09.886Z,17.43
2023-02-11T01:44:38.206Z,17.53
2023-02-11T01:47:41.166Z,16.43
2023-02-11T01:50:45.980Z,16.97
2023-02-11T01:54:08.240Z,16.47
2023-02-11T01:57:23.035Z,16.07
2023-02-11T02:00:31.588Z,16.63
2023-02-11T02:03:37.416Z,17.20
2023-02-11T02:06:46.894Z,17.60
2023-02-11T02:09:55.921Z,17.33
2023-02-11T02:12:58.890Z,18.07
2023-02-11T02:16:07.200Z,17.83
2023-02-11T02:19:40.009Z,17.83
2023-02-11T02:23:04.435Z,17.50
2023-02-11T02:26:33.803Z,16.90
2023-02-11T02:30:02.815Z,17.53
2023-02-11T02:33:45.377Z,15.50
2023-02-11T02:36:55.561Z,16.10
2023-02-11T02:40:04.191Z,15.13
2023-02-11T02:43:09.982Z,15.97
2023-02-11T02:46:15.211Z,15.70
2023-02-11T02:49:19.538Z,15.20
2023-02-11T02:52:35.336Z,14.17
2023-02-11T02:55:53.472Z,13.27
2023-02-11T02:59:13.264Z,13.57
2023-02-11T03:02:23.347Z,13.77
2023-02-11T03:05:37.129Z,14.00
2023-02-11T03:08:44.808Z,14.07
2023-02-11T03:11:47.757Z,14.13
2023-02-11T03:14:53.001Z,14.23
2023-02-11T03:17:59.309Z,13.50
2023-02-11T03:21:06.208Z,14.50
2023-02-11T03:24:15.074Z,13.97
2023-02-11T03:27:22.966Z,13.10
2023-02-11T03:30:31.177Z,12.57
2023-02-11T03:33:39.720Z,12.93
2023-02-11T03:36:49.329Z,13.57
2023-02-11T03:39:56.496Z,12.87
2023-02-11T03:43:04.070Z,13.60
2023-02-11T03:46:08.204Z,12.93
2023-02-11T03:49:14.374Z,13.13
2023-02-11T03:52:20.928Z,12.47
2023-02-11T03:55:25.848Z,12.10
2023-02-11T03:58:28.878Z,11.80
2023-02-11T04:01:32.246Z,11.23
2023-02-11T04:04:35.272Z,11.83
2023-02-11T04:07:39.561Z,11.20
2023-02-11T04:10:42.488Z,11.47
2023-02-11T04:13:45.408Z,10.60
2023-02-11T04:16:51.066Z,11.00
2023-02-11T04:19:54.004Z,10.30
2023-02-11T04:22:58.311Z,10.10
2023-02-11T04:26:01.240Z,10.53
2023-02-11T04:29:04.230Z,10.47
2023-02-11T04:32:07.219Z,10.53
2023-02-11T04:35:10.195Z,10.10
2023-02-11T04:38:15.162Z,10.13
2023-02-11T04:41:18.077Z,9.90
2023-02-11T04:44:21.029Z,9.63
2023-02-11T04:47:23.992Z,10.33
2023-02-11T04:50:26.949Z,9.97
2023-02-11T04:53:31.287Z,10.10
2023-02-11T04:56:34.321Z,9.30
2023-02-11T04:59:37.354Z,8.63
2023-02-11T05:02:40.305Z,9.80
2023-02-11T05:05:43.855Z,10.03
2023-02-11T05:08:48.163Z,9.63
2023-02-11T05:11:51.246Z,8.83
2023-02-11T05:14:54.228Z,9.43
2023-02-11T05:17:57.370Z,8.90
2023-02-11T05:21:00.438Z,9.27
2023-02-11T05:24:05.381Z,10.00
2023-02-11T05:27:08.425Z,10.40
2023-02-11T05:30:12.565Z,8.80
2023-02-11T05:33:15.557Z,9.40
2023-02-11T05:36:18.573Z,9.50
2023-02-11T05:39:23.035Z,8.73
2023-02-11T05:42:26.001Z,8.33
2023-02-11T05:45:29.218Z,8.90
2023-02-11T05:48:32.606Z,8.03
2023-02-11T05:51:35.525Z,8.50
2023-02-11T05:54:39.839Z,8.57
2023-02-11T05:57:42.979Z,10.07
2023-02-11T06:00:45.921Z,11.60
2023-02-11T06:03:50.008Z,12.83
2023-02-11T06:06:52.968Z,11.57
2023-02-11T06:09:57.541Z,10.87
2023-02-11T06:13:00.458Z,11.10
2023-02-11T06:16:04.107Z,11.87
2023-02-11T06:19:07.055Z,10.67
2023-02-11T06:22:09.976Z,10.37
2023-02-11T06:25:14.952Z,9.37
2023-02-11T06:28:19.350Z,8.87
2023-02-11T06:31:22.438Z,8.67
2023-02-11T06:34:25.448Z,8.80
2023-02-11T06:37:28.523Z,9.83
2023-02-11T06:40:32.797Z,10.30
2023-02-11T06:43:35.746Z,10.63
2023-02-11T06:46:38.743Z,10.33
2023-02-11T06:49:41.709Z,10.27
2023-02-11T06:52:44.636Z,9.57
2023-02-11T06:55:49.153Z,9.53
2023-02-11T06:58:54.600Z,8.50
2023-02-11T07:01:57.631Z,8.50
2023-02-11T07:05:00.795Z,7.43
2023-02-11T07:08:03.755Z,9.13
2023-02-11T07:11:12.363Z,7.73
2023-02-11T07:14:15.345Z,7.47
2023-02-11T07:17:18.275Z,7.90
2023-02-11T07:20:21.258Z,8.90
2023-02-11T07:23:24.186Z,8.37
2023-02-11T07:26:29.173Z,8.80
2023-02-11T07:29:32.177Z,8.70
2023-02-11T07:32:35.111Z,8.97
2023-02-11T07:35:38.072Z,10.27
2023-02-11T07:38:41.720Z,10.97
2023-02-11T07:41:47.753Z,10.97
2023-02-11T07:44:50.798Z,10.77
2023-02-11T07:47:53.751Z,10.90
2023-02-11T07:50:56.910Z,10.80
2023-02-11T07:54:00.961Z,11.53
2023-02-11T07:57:05.383Z,10.60
2023-02-11T08:00:09.160Z,10.67
2023-02-11T08:03:12.094Z,10.77
2023-02-11T08:06:16.756Z,10.20
2023-02-11T08:09:19.726Z,9.40
2023-02-11T08:12:24.033Z,9.93
2023-02-11T08:15:27.099Z,9.40
2023-02-11T08:18:30.449Z,9.53
2023-02-11T08:21:33.443Z,9.43
2023-02-11T08:24:36.420Z,9.00
2023-02-11T08:27:40.718Z,8.70
2023-02-11T08:30:43.665Z,10.03
2023-02-11T08:33:47.086Z,8.40
2023-02-11T08:36:50.043Z,9.17
2023-02-11T08:39:52.989Z,10.03
2023-02-11T08:42:57.290Z,8.87
2023-02-11T08:46:02.133Z,9.53
2023-02-11T08:49:05.546Z,9.03
2023-02-11T08:52:08.492Z,9.10
2023-02-11T08:55:11.510Z,8.67
2023-02-11T08:58:18.151Z,8.83
2023-02-11T09:01:25.653Z,8.67
2023-02-11T09:04:28.883Z,9.53
2023-02-11T09:07:31.910Z,8.27
2023-02-11T09:10:35.225Z,8.93
2023-02-11T09:13:41.146Z,8.40
2023-02-11T09:16:44.510Z,8.43
2023-02-11T09:19:47.440Z,7.97
2023-02-11T09:22:50.459Z,8.30
2023-02-11T09:25:53.570Z,7.67
2023-02-11T09:28:57.895Z,6.97
2023-02-11T09:32:00.977Z,8.07
2023-02-11T09:35:04.333Z,7.07
2023-02-11T09:38:07.313Z,7.90
2023-02-11T09:41:45.699Z,7.00
2023-02-11T09:44:50.630Z,7.50
2023-02-11T09:47:57.026Z,5.93
2023-02-11T09:51:02.411Z,6.20
2023-02-11T09:54:12.469Z,6.87
2023-02-11T09:57:27.895Z,6.50
2023-02-11T10:00:40.363Z,6.70
2023-02-11T10:03:56.774Z,5.00
2023-02-11T10:07:08.494Z,5.80
2023-02-11T10:10:21.858Z,5.77
2023-02-11T10:13:44.745Z,5.70
2023-02-11T10:17:01.839Z,5.27
2023-02-11T10:20:19.049Z,5.20
2023-02-11T10:23:25.806Z,4.97
2023-02-11T10:26:31.810Z,5.63
2023-02-11T10:29:42.504Z,5.43
2023-02-11T10:32:50.441Z,5.77
2023-02-11T10:35:53.480Z,5.60
2023-02-11T10:38:56.464Z,4.53
2023-02-11T10:42:03.897Z,4.63
2023-02-11T10:45:08.285Z,4.17
2023-02-11T10:48:40.860Z,4.83
2023-02-11T10:51:43.813Z,4.60
2023-02-11T10:55:02.992Z,3.33
2023-02-11T10:58:06.624Z,5.23
2023-02-11T11:01:23.505Z,4.07
2023-02-11T11:04:41.650Z,4.63
2023-02-11T11:07:54.080Z,3.67
2023-02-11T11:11:07.225Z,3.60
2023-02-11T11:14:20.435Z,4.20
2023-02-11T11:17:23.435Z,4.33
2023-02-11T11:20:32.006Z,4.17
2023-02-11T11:23:37.440Z,3.50
2023-02-11T11:26:42.908Z,4.00
2023-02-11T11:29:48.913Z,3.90
2023-02-11T11:32:51.975Z,2.87
2023-02-11T11:36:01.673Z,3.50
2023-02-11T11:39:18.336Z,3.13
2023-02-11T11:42:27.742Z,2.90
2023-02-11T11:45:31.090Z,2.80
2023-02-11T11:48:38.393Z,2.80
2023-02-11T11:51:46.238Z,2.90
2023-02-11T11:54:59.927Z,3.33
2023-02-11T11:58:03.141Z,3.00
2023-02-11T12:01:24.373Z,3.33
2023-02-11T12:04:43.499Z,2.77
2023-02-11T12:08:00.982Z,3.67
2023-02-11T12:11:11.695Z,3.53
2023-02-11T12:14:25.064Z,2.73
2023-02-11T12:17:47.338Z,2.43
2023-02-11T12:21:09.370Z,2.30
2023-02-11T12:24:35.475Z,2.57
2023-02-11T12:27:49.375Z,2.40
2023-02-11T12:31:06.248Z,3.13
2023-02-11T12:34:34.162Z,2.70
2023-02-11T12:37:53.641Z,2.80
2023-02-11T12:41:11.421Z,2.57
2023-02-11T12:44:24.439Z,1.80
2023-02-11T12:47:34.586Z,2.00
2023-02-11T12:50:46.025Z,2.20
2023-02-11T12:54:07.539Z,2.40
2023-02-11T12:57:19.303Z,1.93
2023-02-11T13:00:25.573Z,1.60
2023-02-11T13:03:35.948Z,2.40
2023-02-11T13:06:43.162Z,2.30
2023-02-11T13:09:52.592Z,3.27
2023-02-11T13:13:17.839Z,2.00
2023-02-11T13:16:37.582Z,2.13
2023-02-11T13:19:46.959Z,2.03
2023-02-11T13:22:57.229Z,2.00
2023-02-11T13:26:06.537Z,2.20
2023-02-11T13:29:22.054Z,2.23
2023-02-11T13:32:24.992Z,2.07
2023-02-11T13:35:30.288Z,2.13
2023-02-11T13:38:33.962Z,2.80
2023-02-11T13:41:40.439Z,2.30
2023-02-11T13:44:44.793Z,2.43
2023-02-11T13:47:52.393Z,2.40
2023-02-11T13:50:58.623Z,3.17
2023-02-11T13:54:02.381Z,2.80
2023-02-11T13:57:33.721Z,3.37
2023-02-11T14:00:49.661Z,2.50
2023-02-11T14:04:36.372Z,2.30
2023-02-11T14:07:56.655Z,2.90
2023-02-11T14:11:01.420Z,2.80
2023-02-11T14:14:16.675Z,3.20
2023-02-11T14:17:30.934Z,2.80
2023-02-11T14:20:37.770Z,2.90
2023-02-11T14:23:41.757Z,2.70
2023-02-11T14:26:51.793Z,2.70
2023-02-11T14:30:10.535Z,2.60
2023-02-11T14:33:42.727Z,2.30
2023-02-11T14:37:06.756Z,2.20
2023-02-11T14:40:19.645Z,2.87
2023-02-11T14:43:29.543Z,2.27
2023-02-11T14:46:34.412Z,2.47
2023-02-11T14:49:41.365Z,2.27
2023-02-11T14:52:45.254Z,2.40
2023-02-11T14:55:50.405Z,2.00
2023-02-11T14:58:54.367Z,1.90
2023-02-11T15:01:58.557Z,1.97
2023-02-11T15:05:21.940Z,2.13
2023-02-11T15:08:25.132Z,2.10
2023-02-11T15:11:30.837Z,2.73
2023-02-11T15:14:35.761Z,1.90
2023-02-11T15:17:38.845Z,2.13
2023-02-11T15:20:43.223Z,2.10
2023-02-11T15:23:57.093Z,2.30
2023-02-11T15:27:02.121Z,2.03
2023-02-11T15:30:25.041Z,2.17
2023-02-11T15:33:30.197Z,2.60
2023-02-11T15:36:36.237Z,2.67
2023-02-11T15:39:41.508Z,2.83
2023-02-11T15:42:56.824Z,2.83
2023-02-11T15:46:02.747Z,3.93
2023-02-11T15:49:08.016Z,2.63
2023-02-11T15:52:14.089Z,3.50
2023-02-11T15:55:18.388Z,2.83
2023-02-11T15:58:22.719Z,2.97
2023-02-11T16:01:34.286Z,3.07
2023-02-11T16:04:38.304Z,2.83
2023-02-11T16:07:45.596Z,2.37
2023-02-11T16:10:58.433Z,3.20
2023-02-11T16:14:05.822Z,2.73
2023-02-11T16:17:13.099Z,2.90
2023-02-11T16:20:20.075Z,2.57
2023-02-11T16:23:28.257Z,3.33
2023-02-11T16:26:35.318Z,2.77
2023-02-11T16:29:38.635Z,2.90
2023-02-11T16:32:41.563Z,2.93
2023-02-11T16:35:47.535Z,3.13
2023-02-11T16:38:51.813Z,3.23
2023-02-11T16:41:55.790Z,3.63
2023-02-11T16:44:59.752Z,3.90
2023-02-11T16:48:03.005Z,3.80
2023-02-11T16:51:09.137Z,4.67
2023-02-11T16:54:17.069Z,4.90
2023-02-11T16:57:22.069Z,4.70
2023-02-11T17:00:25.535Z,4.87
2023-02-11T17:03:30.184Z,4.40
2023-02-11T17:06:34.760Z,4.23
2023-02-11T17:09:39.286Z,4.83
2023-02-11T17:12:42.229Z,4.20
2023-02-11T17:15:45.183Z,4.57
2023-02-11T17:18:48.438Z,4.07
2023-02-11T17:21:53.429Z,4.53
2023-02-11T17:24:58.272Z,3.70
2023-02-11T17:28:01.292Z,3.97
2023-02-11T17:31:09.276Z,3.87
2023-02-11T17:34:12.914Z,4.27
2023-02-11T17:37:16.152Z,3.70
2023-02-11T17:40:20.785Z,5.07
2023-02-11T17:43:23.733Z,4.93
2023-02-11T17:46:28.145Z,6.30
2023-02-11T17:49:31.245Z,6.67
2023-02-11T17:52:34.210Z,5.43
2023-02-11T17:55:38.771Z,6.17
2023-02-11T17:58:41.724Z,6.40
2023-02-11T18:01:45.205Z,6.57
2023-02-11T18:04:48.328Z,5.53
2023-02-11T18:07:51.353Z,6.60
2023-02-11T18:10:55.645Z,6.73
2023-02-11T18:13:59.878Z,6.23
2023-02-11T18:17:02.829Z,6.27
2023-02-11T18:20:07.234Z,5.73
2023-02-11T18:23:10.676Z,6.30
2023-02-11T18:26:17.730Z,5.30
2023-02-11T18:29:20.661Z,5.90
2023-02-11T18:32:23.643Z,7.17
2023-02-11T18:35:26.606Z,7.13
2023-02-11T18:38:29.526Z,5.93
2023-02-11T18:41:33.978Z,6.20
2023-02-11T18:44:37.857Z,5.73
2023-02-11T18:47:41.384Z,6.27
2023-02-11T18:50:44.821Z,5.57
2023-02-11T18:53:48.014Z,5.80
2023-02-11T18:56:52.352Z,6.20
2023-02-11T18:59:55.314Z,5.97
2023-02-11T19:02:58.533Z,5.67
2023-02-11T19:06:01.444Z,5.80
2023-02-11T19:09:09.240Z,6.17
2023-02-11T19:12:14.397Z,6.77
2023-02-11T19:15:17.492Z,6.90
2023-02-11T19:18:20.441Z,5.43
2023-02-11T19:21:23.373Z,5.60
2023-02-11T19:24:27.378Z,5.83
2023-02-11T19:27:31.680Z,5.60
2023-02-11T19:30:36.773Z,5.70
2023-02-11T19:33:39.833Z,5.83
2023-02-11T19:36:43.026Z,6.43
2023-02-11T19:39:46.120Z,5.80
2023-02-11T19:42:50.447Z,6.13
2023-02-11T19:45:56.171Z,6.30
2023-02-11T19:49:00.942Z,5.83
2023-02-11T19:52:03.905Z,6.13
2023-02-11T19:55:07.793Z,5.33
2023-02-11T19:58:12.152Z,5.80
2023-02-11T20:01:17.090Z,5.93
2023-02-11T20:04:20.715Z,6.60
2023-02-11T20:07:23.668Z,5.77
2023-02-11T20:10:26.692Z,6.53
2023-02-11T20:13:31.477Z,6.43
2023-02-11T20:16:47.410Z,5.43
2023-02-11T20:19:51.499Z,6.10
2023-02-11T20:22:54.473Z,6.43
2023-02-11T20:25:57.487Z,6.20
2023-02-11T20:29:03.129Z,6.10
2023-02-11T20:32:06.682Z,6.20
2023-02-11T20:35:10.830Z,5.93
2023-02-11T20:38:13.759Z,5.90
2023-02-11T20:41:18.361Z,6.47
2023-02-11T20:44:23.261Z,7.33
2023-02-11T20:47:26.264Z,5.80
2023-02-11T20:50:29.670Z,5.93
2023-02-11T20:53:34.773Z,6.23
2023-02-11T20:56:39.545Z,7.13
2023-02-11T20:59:43.838Z,6.40
2023-02-11T21:02:51.222Z,6.23
2023-02-11T21:05:59.378Z,5.87
2023-02-11T21:09:03.084Z,6.67
2023-02-11T21:12:07.413Z,7.07
2023-02-11T21:15:13.307Z,8.67
2023-02-11T21:18:16.238Z,6.90
2023-02-11T21:21:20.701Z,7.83
2023-02-11T21:24:23.740Z,7.87
2023-02-11T21:27:32.072Z,7.40
2023-02-11T21:30:38.737Z,7.40
2023-02-11T21:33:41.685Z,8.07
2023-02-11T21:36:45.178Z,7.47
2023-02-11T21:39:48.138Z,9.03
2023-02-11T21:42:51.034Z,10.33
2023-02-11T21:45:55.676Z,8.00
2023-02-11T21:49:00.287Z,7.63
2023-02-11T21:52:03.227Z,7.43
2023-02-11T21:55:06.992Z,7.07
2023-02-11T21:58:10.175Z,7.17
2023-02-11T22:01:16.888Z,7.50
2023-02-11T22:04:19.884Z,6.77
2023-02-11T22:07:23.434Z,6.87
2023-02-11T22:10:26.366Z,7.00
2023-02-11T22:13:29.285Z,6.37
2023-02-11T22:16:33.603Z,6.57
2023-02-11T22:19:36.618Z,6.17
2023-02-11T22:22:39.540Z,5.33
2023-02-11T22:25:42.494Z,5.37
2023-02-11T22:28:46.184Z,6.17
2023-02-11T22:31:50.549Z,5.03
2023-02-11T22:34:53.694Z,5.40
2023-02-11T22:37:56.625Z,5.50
2023-02-11T22:41:01.223Z,5.90
2023-02-11T22:44:04.154Z,5.30
2023-02-11T22:47:08.453Z,5.97
2023-02-11T22:50:12.033Z,5.37
2023-02-11T22:53:14.956Z,5.87
2023-02-11T22:56:18.400Z,6.27
2023-02-11T22:59:21.944Z,5.00
2023-02-11T23:02:26.296Z,5.87
2023-02-11T23:05:29.280Z,6.23
2023-02-11T23:08:33.582Z,5.63
2023-02-11T23:11:36.958Z,5.80
2023-02-11T23:14:39.922Z,5.93
2023-02-11T23:17:44.237Z,5.83
2023-02-11T23:20:47.212Z,6.03
2023-02-11T23:23:55.042Z,6.20
2023-02-11T23:26:58.020Z,4.93
2023-02-11T23:30:01.160Z,5.50
2023-02-11T23:33:05.559Z,4.77
2023-02-11T23:36:09.466Z,4.83
2023-02-11T23:39:15.577Z,5.00
2023-02-11T23:42:18.547Z,4.77
2023-02-11T23:45:22.583Z,3.97
2023-02-11T23:48:27.036Z,3.80
2023-02-11T23:51:29.994Z,4.00
2023-02-11T23:54:33.113Z,3.83
2023-02-11T23:57:36.563Z,4.00
